Terminal Aerodrome Forecast
Issued by NWS

Home | Current Version | Previous Version | Graphics & Text | Print | Product List | Glossary On
Versions: 1 2 3 4 5 6 7 8 9 10 11 12 13 14 15 16 17 18 19 20 21 22 23 24
122
FTUS43 KABR 101848 AAB
TAFATY
TAF AMD
KATY 101848Z 1019/1118 10008KT 1SM -SN OVC020
      TEMPO 1019/1021 1/2SM SN OVC015
     FM102200 10013KT 5SM -SN OVC010
     FM110600 10013G20KT 1SM -SN OVC015
     FM111200 07008KT 3SM -SN OVC008
     FM111500 02008KT P6SM OVC010=

USA.gov is the U.S. government's official web portal to all federal, state and local government web resources and services.